Time;durP1;ratioP1;P1;durP2;ratioP2;P2;SDS_P1;SDS_P2;PMS_P1;PMS_P2;Temp;Humidity;BMP_temperature;BMP_pressure;BME280_temperature;BME280_humidity;BME280_pressure;Samples;Min_cycle;Max_cycle;Signal;HPM_P1;HPM_P2
2023/10/15 00:01:53;;;;;;;1.90;0.30;;;11.30;97.20;;;;;;5036347;28;20053;-79
2023/10/15 00:04:19;;;;;;;3.38;0.68;;;11.30;97.30;;;;;;5036205;28;20442;-80
2023/10/15 00:06:44;;;;;;;7.13;0.70;;;11.40;97.40;;;;;;5036226;28;20053;-80
2023/10/15 00:09:10;;;;;;;5.63;0.45;;;11.40;97.40;;;;;;5036179;28;20029;-80
2023/10/15 00:11:36;;;;;;;2.72;0.40;;;11.40;97.50;;;;;;5018688;28;20402;-80
2023/10/15 00:14:03;;;;;;;2.50;0.20;;;11.40;97.50;;;;;;5035790;28;20444;-80
2023/10/15 00:16:29;;;;;;;4.93;0.40;;;11.30;97.60;;;;;;5035562;28;20025;-74
2023/10/15 00:18:55;;;;;;;4.38;1.20;;;11.40;97.70;;;;;;5018460;28;20042;-81
2023/10/15 00:21:21;;;;;;;3.08;0.40;;;11.30;97.80;;;;;;5018240;28;20034;-78
2023/10/15 00:23:47;;;;;;;1.65;0.38;;;11.30;97.90;;;;;;5036028;28;20034;-81
2023/10/15 00:26:15;;;;;;;2.00;0.30;;;11.40;98.00;;;;;;5035897;28;20025;-80
2023/10/15 00:28:44;;;;;;;2.40;0.30;;;11.50;98.10;;;;;;5035988;28;20032;-80
2023/10/15 00:31:13;;;;;;;2.97;0.30;;;11.50;98.00;;;;;;5035871;28;20044;-80
2023/10/15 00:33:48;;;;;;;4.20;0.22;;;11.50;98.00;;;;;;5035643;28;20037;-81
2023/10/15 00:36:14;;;;;;;3.60;0.43;;;11.60;97.80;;;;;;5018195;28;20104;-79
2023/10/15 00:38:44;;;;;;;3.85;0.30;;;11.50;97.60;;;;;;5041154;28;20054;-79
2023/10/15 00:41:13;;;;;;;2.22;0.50;;;11.40;97.60;;;;;;5050593;28;20030;-80
2023/10/15 00:44:09;;;;;;;2.20;0.30;;;11.30;97.70;;;;;;5037517;28;20557;-83
2023/10/15 00:46:37;;;;;;;1.65;0.20;;;11.10;98.10;;;;;;5021168;28;20046;-80
2023/10/15 00:49:14;;;;;;;3.53;0.20;;;11.00;98.30;;;;;;5035433;28;20057;-81
2023/10/15 00:51:44;;;;;;;2.22;0.30;;;10.80;98.50;;;;;;5035579;28;20043;-82
2023/10/15 00:54:15;;;;;;;4.47;0.30;;;10.70;98.80;;;;;;5039261;28;20025;-81
2023/10/15 00:56:44;;;;;;;4.15;0.30;;;10.70;98.90;;;;;;5017867;28;20037;-81
2023/10/15 00:59:21;;;;;;;2.63;0.28;;;10.60;99.10;;;;;;5035213;28;20046;-79
2023/10/15 01:04:31;;;;;;;2.97;0.30;;;10.60;99.40;;;;;;5035238;28;20034;-80
2023/10/15 01:07:00;;;;;;;3.22;0.20;;;10.50;99.60;;;;;;5035070;28;20064;-80
2023/10/15 01:09:29;;;;;;;2.33;0.10;;;10.50;99.80;;;;;;5034830;28;20052;-79
2023/10/15 01:11:56;;;;;;;1.95;0.30;;;10.50;99.90;;;;;;5018052;28;20030;-79
2023/10/15 01:14:31;;;;;;;2.17;0.20;;;10.40;99.90;;;;;;5034818;28;20083;-79
2023/10/15 01:16:57;;;;;;;3.97;0.30;;;10.40;99.90;;;;;;5034364;28;20041;-78
2023/10/15 01:19:33;;;;;;;3.55;0.20;;;10.40;99.90;;;;;;5034921;28;20033;-79
2023/10/15 01:22:03;;;;;;;2.28;0.20;;;10.40;99.90;;;;;;5035132;28;20026;-79
2023/10/15 01:24:34;;;;;;;2.92;0.22;;;10.50;99.90;;;;;;5034337;28;20060;-80
2023/10/15 01:29:33;;;;;;;2.33;0.38;;;10.40;99.90;;;;;;5017140;28;20108;-79
2023/10/15 01:32:44;;;;;;;2.75;0.22;;;10.40;99.90;;;;;;5034817;28;20030;-80
2023/10/15 01:34:50;;;;;;;2.20;0.17;;;10.40;99.90;;;;;;5026333;28;20033;-79
2023/10/15 01:39:51;;;;;;;1.92;0.10;;;10.30;99.90;;;;;;5034614;28;20038;-78
2023/10/15 01:45:30;;;;;;;2.05;0.20;;;10.20;99.90;;;;;;5034166;28;20029;-80
2023/10/15 01:50:33;;;;;;;1.80;0.10;;;10.10;99.90;;;;;;5034335;28;20107;-78
2023/10/15 01:53:03;;;;;;;1.45;0.13;;;10.10;99.90;;;;;;5034277;28;20025;-79
2023/10/15 01:55:30;;;;;;;1.75;0.15;;;10.00;99.90;;;;;;5033657;28;20113;-80
2023/10/15 01:58:00;;;;;;;2.22;0.20;;;10.00;99.90;;;;;;5034278;28;20029;-80
2023/10/15 02:00:43;;;;;;;3.95;0.28;;;10.00;99.90;;;;;;5034178;28;20042;-79
2023/10/15 02:03:13;;;;;;;2.10;0.20;;;10.00;99.90;;;;;;5034612;28;20034;-80
2023/10/15 02:05:42;;;;;;;2.38;0.38;;;10.00;99.90;;;;;;5033761;28;20083;-79
2023/10/15 02:08:23;;;;;;;1.83;0.28;;;9.90;99.90;;;;;;5034107;28;20036;-79
2023/10/15 02:10:49;;;;;;;3.72;0.28;;;9.90;99.90;;;;;;5033984;28;20034;-78
2023/10/15 02:13:19;;;;;;;2.97;0.30;;;10.00;99.90;;;;;;5033976;28;20032;-79
2023/10/15 02:15:46;;;;;;;2.65;0.40;;;10.00;99.90;;;;;;5033762;28;20091;-78
2023/10/15 02:18:14;;;;;;;3.28;0.20;;;10.00;99.90;;;;;;5015635;28;20033;-78
2023/10/15 02:20:44;;;;;;;2.25;0.30;;;10.00;99.90;;;;;;5033803;28;20049;-78
2023/10/15 02:23:11;;;;;;;3.80;0.40;;;10.10;99.90;;;;;;5033803;28;20029;-79
2023/10/15 02:25:45;;;;;;;1.65;0.20;;;10.10;99.90;;;;;;5015975;28;20489;-78
2023/10/15 02:28:24;;;;;;;0.98;0.35;;;10.10;99.90;;;;;;5033705;28;20127;-79
2023/10/15 02:30:49;;;;;;;2.55;0.25;;;10.10;99.90;;;;;;5033576;28;20485;-79
2023/10/15 02:33:17;;;;;;;3.40;0.30;;;10.20;99.90;;;;;;5033547;28;20100;-80
2023/10/15 02:35:47;;;;;;;2.90;0.20;;;10.20;99.90;;;;;;5033510;28;20079;-80
2023/10/15 02:38:14;;;;;;;3.22;0.35;;;10.20;99.90;;;;;;5015642;28;20453;-80
2023/10/15 02:43:27;;;;;;;2.10;0.30;;;10.30;99.90;;;;;;5033405;28;20037;-80
2023/10/15 02:45:52;;;;;;;3.40;0.20;;;10.30;99.90;;;;;;5033328;28;20396;-81
2023/10/15 02:48:22;;;;;;;3.88;0.30;;;10.40;99.90;;;;;;5032807;28;20104;-82
2023/10/15 02:50:59;;;;;;;4.38;0.20;;;10.40;99.90;;;;;;5015938;28;20025;-83
2023/10/15 02:53:34;;;;;;;1.85;0.20;;;10.40;99.90;;;;;;5033187;28;20488;-82
2023/10/15 02:55:59;;;;;;;1.52;0.10;;;10.40;99.90;;;;;;5016529;28;20037;-81
2023/10/15 02:58:28;;;;;;;1.00;0.10;;;10.40;99.90;;;;;;5033102;28;20052;-81
2023/10/15 03:01:00;;;;;;;1.95;0.20;;;10.40;99.90;;;;;;5033308;28;20025;-81
2023/10/15 03:03:33;;;;;;;2.03;0.10;;;10.40;99.90;;;;;;5033230;28;20075;-80
2023/10/15 03:06:00;;;;;;;0.73;0.10;;;10.40;99.90;;;;;;5032372;28;20032;-81
2023/10/15 03:08:31;;;;;;;1.73;0.32;;;10.40;99.90;;;;;;5033179;28;20095;-81
2023/10/15 03:11:11;;;;;;;3.45;0.10;;;10.50;99.90;;;;;;5032765;28;20064;-81
2023/10/15 03:13:45;;;;;;;1.95;0.20;;;10.50;99.90;;;;;;5033272;28;20038;-82
2023/10/15 03:16:10;;;;;;;1.13;0.15;;;10.50;99.90;;;;;;5032640;28;20025;-81
2023/10/15 03:18:36;;;;;;;1.75;0.32;;;10.40;99.90;;;;;;5014712;28;20040;-81
2023/10/15 03:21:14;;;;;;;1.35;0.17;;;10.40;99.90;;;;;;5033000;28;20036;-81
2023/10/15 03:23:41;;;;;;;3.05;0.20;;;10.30;99.90;;;;;;5015457;28;20534;-81
2023/10/15 03:26:08;;;;;;;3.60;0.17;;;10.20;99.90;;;;;;5032939;28;20061;-80
2023/10/15 03:28:44;;;;;;;1.02;0.10;;;10.20;99.90;;;;;;5015062;28;20045;-80
2023/10/15 03:31:14;;;;;;;1.60;0.20;;;10.20;99.90;;;;;;5015546;28;20405;-80
2023/10/15 03:33:41;;;;;;;1.35;0.10;;;10.20;99.90;;;;;;5033095;28;20389;-81
2023/10/15 03:36:12;;;;;;;1.95;0.20;;;10.20;99.90;;;;;;5032781;28;20030;-79
2023/10/15 03:38:38;;;;;;;2.10;0.20;;;10.20;99.90;;;;;;5032977;28;20028;-81
2023/10/15 03:41:11;;;;;;;1.35;0.20;;;10.10;99.90;;;;;;5033024;28;20433;-81
2023/10/15 03:43:39;;;;;;;1.13;0.00;;;10.20;99.90;;;;;;5033115;28;20430;-81
2023/10/15 03:46:17;;;;;;;3.13;0.10;;;10.20;99.90;;;;;;5032936;28;20123;-81
2023/10/15 03:48:47;;;;;;;2.70;0.13;;;10.20;99.90;;;;;;5032384;28;20033;-81
2023/10/15 03:51:20;;;;;;;1.60;0.10;;;10.20;99.90;;;;;;5033092;28;20021;-81
2023/10/15 03:53:49;;;;;;;3.13;0.20;;;10.20;99.90;;;;;;5032905;28;20030;-81
2023/10/15 03:56:17;;;;;;;2.08;0.20;;;10.20;99.90;;;;;;5032540;28;20113;-81
2023/10/15 03:58:43;;;;;;;1.58;0.10;;;10.20;99.90;;;;;;5032698;28;20036;-81
2023/10/15 04:03:35;;;;;;;1.50;0.20;;;10.10;99.90;;;;;;5032925;28;20033;-83
2023/10/15 04:06:05;;;;;;;3.05;0.30;;;10.00;99.90;;;;;;5032178;28;20087;-83
2023/10/15 04:08:31;;;;;;;1.73;0.20;;;9.90;99.90;;;;;;5032753;28;20041;-83
2023/10/15 04:10:58;;;;;;;0.70;0.10;;;9.70;99.90;;;;;;5032583;28;20057;-82
2023/10/15 04:13:26;;;;;;;2.78;0.20;;;9.60;99.90;;;;;;5014947;28;20049;-82
2023/10/15 04:15:54;;;;;;;2.15;0.20;;;9.50;99.90;;;;;;5015090;28;20037;-80
2023/10/15 04:18:22;;;;;;;1.75;0.20;;;9.50;99.90;;;;;;5016247;28;20041;-81
2023/10/15 04:20:49;;;;;;;1.75;0.10;;;9.30;99.90;;;;;;5035942;28;20052;-80
2023/10/15 04:23:30;;;;;;;2.67;0.10;;;9.30;99.90;;;;;;5035889;28;20454;-80
2023/10/15 04:26:04;;;;;;;2.38;0.40;;;9.30;99.90;;;;;;5036058;28;20046;-80
2023/10/15 04:28:30;;;;;;;2.05;0.10;;;9.20;99.90;;;;;;5035984;28;20038;-80
2023/10/15 04:30:56;;;;;;;1.52;0.10;;;9.30;99.90;;;;;;5035409;28;20029;-80
2023/10/15 04:33:25;;;;;;;2.15;0.30;;;9.40;99.90;;;;;;5035938;28;20025;-80
2023/10/15 04:35:51;;;;;;;1.10;0.10;;;9.50;99.90;;;;;;5035771;28;20057;-80
2023/10/15 04:38:38;;;;;;;5.03;0.20;;;9.60;99.90;;;;;;5018035;28;20111;-81
2023/10/15 04:41:03;;;;;;;1.52;0.10;;;9.70;99.90;;;;;;5034710;28;20044;-81
2023/10/15 04:43:40;;;;;;;2.15;0.08;;;9.80;99.90;;;;;;5035897;28;20279;-81
2023/10/15 04:46:07;;;;;;;1.02;0.03;;;10.00;99.90;;;;;;5035752;28;20057;-81
2023/10/15 04:48:36;;;;;;;1.20;0.03;;;10.00;99.90;;;;;;5034903;28;20029;-82
2023/10/15 04:51:12;;;;;;;0.98;0.10;;;10.00;99.90;;;;;;5035335;28;20057;-82
2023/10/15 04:53:42;;;;;;;2.25;0.32;;;10.10;99.90;;;;;;5019281;28;20046;-82
2023/10/15 04:56:08;;;;;;;0.82;0.10;;;10.10;99.90;;;;;;5035533;28;20021;-80
2023/10/15 04:58:34;;;;;;;3.33;0.10;;;10.00;99.90;;;;;;5035337;28;20038;-79
2023/10/15 05:01:01;;;;;;;2.65;0.10;;;9.80;99.90;;;;;;5035532;28;20026;-81
2023/10/15 05:03:26;;;;;;;1.55;0.20;;;9.80;99.90;;;;;;5017349;28;20484;-80
2023/10/15 05:05:59;;;;;;;1.88;0.00;;;9.80;99.90;;;;;;5035322;28;20108;-80
2023/10/15 05:08:26;;;;;;;0.85;0.10;;;9.70;99.90;;;;;;5035124;28;20521;-79
2023/10/15 05:10:51;;;;;;;2.35;0.13;;;9.70;99.90;;;;;;5034879;28;20033;-80
2023/10/15 05:13:18;;;;;;;1.45;0.10;;;9.70;99.90;;;;;;5035223;28;20523;-81
2023/10/15 05:15:47;;;;;;;3.85;0.10;;;9.60;99.90;;;;;;5017688;28;20044;-80
2023/10/15 05:18:15;;;;;;;1.38;0.10;;;9.70;99.90;;;;;;5034297;28;20041;-79
2023/10/15 05:20:41;;;;;;;0.80;0.10;;;9.70;99.90;;;;;;5035019;28;20064;-80
2023/10/15 05:23:07;;;;;;;0.55;0.10;;;9.70;99.90;;;;;;5034905;28;20079;-80
2023/10/15 05:25:32;;;;;;;1.75;0.10;;;9.70;99.90;;;;;;5013577;28;20046;-81
2023/10/15 05:27:59;;;;;;;1.48;0.10;;;9.70;99.90;;;;;;5015073;28;20026;-79
2023/10/15 05:30:26;;;;;;;1.45;0.10;;;9.70;99.90;;;;;;5014175;28;20030;-79
2023/10/15 05:32:52;;;;;;;3.45;0.10;;;9.80;99.90;;;;;;5014593;28;20038;-81
2023/10/15 05:35:18;;;;;;;2.47;0.10;;;9.90;99.90;;;;;;5013910;28;20029;-80
2023/10/15 05:37:45;;;;;;;2.42;0.40;;;9.90;99.90;;;;;;5010898;28;20037;-80
2023/10/15 05:40:17;;;;;;;1.75;0.10;;;10.00;99.90;;;;;;5013701;28;20052;-81
2023/10/15 05:42:43;;;;;;;1.10;0.10;;;10.00;99.90;;;;;;5014882;28;20030;-82
2023/10/15 05:45:09;;;;;;;2.17;0.10;;;10.10;99.90;;;;;;5014510;28;20105;-80
2023/10/15 05:47:35;;;;;;;1.92;0.10;;;10.10;99.90;;;;;;5013892;28;20062;-79
2023/10/15 05:50:01;;;;;;;1.10;0.10;;;10.20;99.90;;;;;;5015114;28;20497;-83
2023/10/15 05:52:26;;;;;;;1.60;0.10;;;10.30;99.90;;;;;;5014339;28;20463;-80
2023/10/15 05:54:53;;;;;;;2.25;0.10;;;10.30;99.90;;;;;;5013343;28;20060;-78
2023/10/15 05:57:22;;;;;;;2.47;0.10;;;10.20;99.90;;;;;;5014097;28;20062;-78
2023/10/15 05:59:50;;;;;;;3.05;0.15;;;10.30;99.90;;;;;;5014094;28;20038;-79
2023/10/15 06:02:17;;;;;;;1.42;0.28;;;10.20;99.90;;;;;;5015032;28;20061;-81
2023/10/15 06:04:43;;;;;;;1.73;0.10;;;10.10;99.90;;;;;;5025347;28;20030;-80
2023/10/15 06:07:10;;;;;;;1.52;0.20;;;10.10;99.90;;;;;;5017751;28;20044;-76
2023/10/15 06:09:36;;;;;;;0.55;0.10;;;10.00;99.90;;;;;;5021959;28;20111;-77
2023/10/15 06:12:02;;;;;;;4.20;0.20;;;9.90;99.90;;;;;;5032441;28;20029;-81
2023/10/15 06:14:30;;;;;;;3.03;0.13;;;9.90;99.90;;;;;;5029384;28;20134;-81
2023/10/15 06:16:59;;;;;;;2.03;0.10;;;9.80;99.90;;;;;;5026668;28;20056;-76
2023/10/15 06:19:25;;;;;;;1.77;0.40;;;9.80;99.90;;;;;;5027670;28;20581;-80
2023/10/15 06:21:51;;;;;;;2.83;0.10;;;9.70;99.90;;;;;;5023238;28;20034;-82
2023/10/15 06:24:17;;;;;;;1.42;0.20;;;9.60;99.90;;;;;;5022745;28;20124;-82
2023/10/15 06:26:44;;;;;;;1.35;0.10;;;9.60;99.90;;;;;;5049481;28;20116;-81
2023/10/15 06:29:10;;;;;;;1.20;0.10;;;9.50;99.90;;;;;;5043481;28;20049;-80
2023/10/15 06:31:39;;;;;;;1.95;0.10;;;9.40;99.90;;;;;;5045747;28;20418;-80
2023/10/15 06:34:06;;;;;;;3.10;0.20;;;9.40;99.90;;;;;;5053529;28;20021;-80
2023/10/15 06:36:32;;;;;;;2.92;0.40;;;9.40;99.90;;;;;;5053104;28;20040;-79
2023/10/15 06:39:00;;;;;;;2.53;0.30;;;9.30;99.90;;;;;;5053321;28;20029;-80
2023/10/15 06:41:26;;;;;;;1.20;0.20;;;9.30;99.90;;;;;;5053054;28;20392;-78
2023/10/15 06:43:52;;;;;;;2.80;0.28;;;9.30;99.90;;;;;;5053502;28;20066;-80
2023/10/15 06:46:17;;;;;;;3.58;0.30;;;9.20;99.90;;;;;;5053490;28;20481;-79
2023/10/15 06:48:44;;;;;;;2.25;0.30;;;9.20;99.90;;;;;;5035673;28;20455;-78
2023/10/15 06:51:10;;;;;;;2.83;0.30;;;9.20;99.90;;;;;;5033326;28;20128;-78
2023/10/15 06:53:36;;;;;;;4.93;0.30;;;9.10;99.90;;;;;;5033602;28;20505;-76
2023/10/15 06:56:06;;;;;;;2.67;0.40;;;9.10;99.90;;;;;;5033674;28;20022;-81
2023/10/15 06:58:33;;;;;;;1.92;0.20;;;9.10;99.90;;;;;;5033428;28;20568;-80
2023/10/15 07:00:59;;;;;;;2.05;0.30;;;9.10;99.90;;;;;;5033445;28;20072;-81
2023/10/15 07:03:25;;;;;;;3.13;0.40;;;9.00;99.90;;;;;;5015622;28;20458;-80
2023/10/15 07:05:51;;;;;;;2.67;0.30;;;9.00;99.90;;;;;;5033497;28;20055;-77
2023/10/15 07:08:16;;;;;;;1.10;0.30;;;9.00;99.90;;;;;;5033116;28;20359;-78
2023/10/15 07:10:43;;;;;;;2.30;0.30;;;9.10;99.90;;;;;;5033186;28;20573;-79
2023/10/15 07:13:10;;;;;;;2.20;0.20;;;9.10;99.90;;;;;;5023221;28;20079;-79
2023/10/15 07:15:36;;;;;;;2.97;0.60;;;9.20;99.90;;;;;;5052626;28;20032;-79
2023/10/15 07:18:03;;;;;;;1.77;0.20;;;9.20;99.90;;;;;;5052545;28;20033;-77
2023/10/15 07:20:30;;;;;;;5.20;0.30;;;9.30;99.90;;;;;;5052927;28;20030;-80
2023/10/15 07:23:02;;;;;;;2.70;0.38;;;9.40;99.90;;;;;;5045135;28;20043;-79
2023/10/15 07:25:27;;;;;;;2.08;0.30;;;9.50;99.90;;;;;;5044992;28;20056;-79
2023/10/15 07:27:56;;;;;;;1.63;0.30;;;9.60;99.90;;;;;;5035665;28;20036;-77
2023/10/15 07:30:22;;;;;;;2.97;0.57;;;9.80;99.90;;;;;;5035286;28;20432;-77
2023/10/15 07:32:53;;;;;;;4.47;0.63;;;9.90;99.90;;;;;;5052469;28;20473;-78
2023/10/15 07:35:19;;;;;;;2.08;0.45;;;10.00;99.90;;;;;;5035723;28;20093;-75
2023/10/15 07:37:46;;;;;;;2.95;0.35;;;10.00;99.90;;;;;;5052477;28;20113;-78
2023/10/15 07:40:17;;;;;;;1.85;0.30;;;10.00;99.90;;;;;;5053053;28;20033;-77
2023/10/15 07:42:51;;;;;;;3.08;0.30;;;10.10;99.90;;;;;;5052568;28;20033;-78
2023/10/15 07:45:18;;;;;;;1.42;0.20;;;10.20;99.90;;;;;;5047327;28;20028;-79
2023/10/15 07:47:44;;;;;;;5.15;0.30;;;10.30;99.90;;;;;;5042965;28;20029;-81
2023/10/15 07:50:23;;;;;;;2.88;0.47;;;10.40;99.90;;;;;;5032479;28;20385;-75
2023/10/15 07:52:49;;;;;;;4.38;0.30;;;10.30;99.90;;;;;;5033984;28;20032;-74
2023/10/15 07:55:15;;;;;;;1.63;0.20;;;10.30;99.90;;;;;;5036441;28;20064;-75
2023/10/15 07:57:40;;;;;;;4.53;0.60;;;10.30;99.90;;;;;;5049218;28;20068;-77
2023/10/15 08:00:08;;;;;;;3.20;0.40;;;10.30;99.90;;;;;;5044798;28;20105;-76
2023/10/15 08:02:37;;;;;;;2.90;0.30;;;10.40;99.90;;;;;;5014802;28;20079;-76
2023/10/15 08:05:04;;;;;;;2.92;0.30;;;10.40;99.90;;;;;;5043378;28;20057;-77
2023/10/15 08:07:29;;;;;;;3.83;0.20;;;10.40;99.90;;;;;;5053680;28;20078;-76
2023/10/15 08:09:55;;;;;;;4.50;0.50;;;10.40;99.90;;;;;;5021614;28;20025;-75
2023/10/15 08:12:21;;;;;;;2.75;0.40;;;10.40;99.90;;;;;;5055659;28;20025;-77
2023/10/15 08:14:47;;;;;;;3.30;0.40;;;10.40;99.90;;;;;;5041471;28;20101;-77
2023/10/15 08:17:15;;;;;;;1.95;0.20;;;10.50;99.90;;;;;;5048835;28;20033;-77
2023/10/15 08:19:41;;;;;;;3.28;0.30;;;10.60;99.90;;;;;;5052336;28;20508;-79
2023/10/15 08:22:07;;;;;;;2.38;0.30;;;10.60;99.90;;;;;;5041268;28;20057;-79
2023/10/15 08:24:33;;;;;;;2.03;0.30;;;10.60;99.90;;;;;;5052976;28;20362;-81
2023/10/15 08:26:59;;;;;;;2.20;0.30;;;10.60;99.90;;;;;;5055706;28;20033;-78
2023/10/15 08:29:25;;;;;;;2.50;0.40;;;10.60;99.90;;;;;;5055800;28;20036;-84
2023/10/15 08:31:51;;;;;;;1.48;0.20;;;10.70;99.90;;;;;;5055324;28;20029;-77
2023/10/15 08:34:17;;;;;;;1.80;0.10;;;10.70;99.90;;;;;;5055046;28;20029;-76
2023/10/15 08:36:43;;;;;;;1.25;0.20;;;10.80;99.90;;;;;;5027168;28;20041;-77
2023/10/15 08:39:08;;;;;;;2.40;0.40;;;10.90;99.90;;;;;;5053710;28;20028;-77
2023/10/15 08:41:41;;;;;;;3.38;0.20;;;10.90;99.90;;;;;;5034092;28;20128;-77
2023/10/15 08:44:10;;;;;;;2.22;0.20;;;10.90;99.90;;;;;;5029590;28;20025;-77
2023/10/15 08:46:39;;;;;;;1.45;0.20;;;11.00;99.90;;;;;;5043620;28;20037;-77
2023/10/15 08:49:08;;;;;;;3.85;0.30;;;11.00;99.90;;;;;;5020948;28;20500;-77
2023/10/15 08:51:34;;;;;;;1.27;0.10;;;11.00;99.90;;;;;;5021677;28;20034;-78
2023/10/15 08:54:02;;;;;;;2.63;0.20;;;11.00;99.90;;;;;;5024691;28;20037;-76
2023/10/15 08:56:30;;;;;;;4.28;0.40;;;11.10;99.90;;;;;;5018436;28;20053;-76
2023/10/15 08:58:57;;;;;;;0.90;0.10;;;11.10;99.90;;;;;;5020068;28;20021;-76
2023/10/15 09:01:23;;;;;;;2.53;0.28;;;11.10;99.90;;;;;;5016369;28;20522;-75
2023/10/15 09:03:52;;;;;;;2.05;0.38;;;11.10;99.90;;;;;;5016887;28;20030;-76
2023/10/15 09:06:21;;;;;;;2.05;0.10;;;11.20;99.90;;;;;;5033615;28;20029;-75
2023/10/15 09:08:49;;;;;;;0.65;0.10;;;11.20;99.90;;;;;;5030113;28;20030;-76
2023/10/15 09:11:16;;;;;;;2.65;0.22;;;11.30;99.90;;;;;;5028081;28;20025;-76
2023/10/15 09:13:42;;;;;;;1.00;0.20;;;11.40;99.90;;;;;;5054352;28;20538;-77
2023/10/15 09:16:08;;;;;;;2.45;0.10;;;11.50;99.90;;;;;;5049245;28;20041;-77
2023/10/15 09:18:37;;;;;;;2.70;0.20;;;11.70;99.90;;;;;;5025063;28;20049;-77
2023/10/15 09:21:04;;;;;;;2.65;0.20;;;11.80;99.90;;;;;;5018310;28;20101;-78
2023/10/15 09:23:37;;;;;;;1.42;0.10;;;12.00;99.90;;;;;;5017282;28;20474;-77
2023/10/15 09:26:06;;;;;;;1.38;0.17;;;12.10;99.90;;;;;;5035194;28;20054;-77
2023/10/15 09:28:36;;;;;;;3.13;0.20;;;12.30;99.90;;;;;;5048005;28;20037;-77
2023/10/15 09:31:06;;;;;;;1.92;0.10;;;12.40;99.90;;;;;;5049996;28;20032;-77
2023/10/15 09:33:33;;;;;;;2.70;0.10;;;12.50;99.70;;;;;;5056361;28;20108;-75
2023/10/15 09:35:59;;;;;;;2.05;0.20;;;12.50;99.60;;;;;;5054450;28;20037;-77
2023/10/15 09:38:25;;;;;;;2.40;0.17;;;12.30;98.10;;;;;;5054324;28;20037;-76
2023/10/15 09:40:55;;;;;;;2.38;0.30;;;12.10;98.40;;;;;;5055346;28;20029;-77
2023/10/15 09:43:24;;;;;;;1.42;0.20;;;12.20;99.50;;;;;;5056566;28;20037;-77
2023/10/15 09:45:50;;;;;;;2.75;0.20;;;12.20;99.90;;;;;;5054221;28;20037;-79
2023/10/15 09:48:17;;;;;;;3.53;0.10;;;12.30;99.90;;;;;;5042782;28;20033;-77
2023/10/15 09:50:44;;;;;;;5.15;0.20;;;12.50;99.90;;;;;;5019655;28;20033;-77
2023/10/15 09:53:12;;;;;;;1.35;0.17;;;12.60;99.50;;;;;;5043058;28;20041;-77
2023/10/15 09:55:40;;;;;;;6.18;0.57;;;12.60;99.40;;;;;;5035085;28;20476;-76
2023/10/15 09:58:06;;;;;;;1.95;0.28;;;12.80;99.30;;;;;;5034200;28;20539;-77
2023/10/15 10:00:46;;;;;;;1.33;0.20;;;12.90;99.20;;;;;;5034172;28;20470;-76
2023/10/15 10:03:38;;;;;;;1.70;0.38;;;12.80;98.70;;;;;;5034639;28;20398;-77
2023/10/15 10:06:14;;;;;;;3.65;0.38;;;12.70;98.40;;;;;;4997687;28;20109;-78
2023/10/15 10:08:50;;;;;;;1.83;0.40;;;12.60;98.60;;;;;;5034203;28;20072;-80
2023/10/15 10:11:45;;;;;;;1.63;0.22;;;12.60;98.90;;;;;;5041437;28;20071;-80
2023/10/15 10:15:05;;;;;;;2.53;0.20;;;12.50;97.80;;;;;;5048759;28;20516;-78
2023/10/15 10:17:32;;;;;;;2.85;0.20;;;12.40;97.90;;;;;;4939049;29;20823;-79
2023/10/15 10:20:02;;;;;;;3.85;0.30;;;12.30;98.20;;;;;;5039459;28;20121;-79
2023/10/15 10:22:29;;;;;;;4.47;1.20;;;12.40;98.40;;;;;;5046450;28;20022;-79
2023/10/15 10:24:58;;;;;;;3.55;0.38;;;12.40;97.90;;;;;;5051405;28;20094;-79
2023/10/15 10:27:25;;;;;;;2.53;0.30;;;12.40;97.60;;;;;;5047602;28;20029;-78
2023/10/15 10:29:52;;;;;;;2.90;0.20;;;12.40;98.10;;;;;;5049362;28;20492;-80
2023/10/15 10:32:20;;;;;;;4.85;0.20;;;12.60;97.70;;;;;;5053250;28;20028;-79
2023/10/15 10:35:06;;;;;;;2.10;0.40;;;12.80;97.50;;;;;;5053390;28;20036;-79
2023/10/15 10:37:32;;;;;;;1.85;0.20;;;13.00;97.60;;;;;;5053380;28;20025;-78
2023/10/15 10:39:59;;;;;;;2.35;0.20;;;13.10;97.10;;;;;;5054104;28;20111;-77
2023/10/15 10:42:26;;;;;;;1.42;0.20;;;13.10;95.90;;;;;;5052243;28;20035;-81
2023/10/15 10:44:58;;;;;;;3.50;0.30;;;13.00;95.30;;;;;;5045526;28;20100;-77
2023/10/15 10:47:29;;;;;;;2.90;0.28;;;13.00;95.60;;;;;;5042563;28;20061;-80
2023/10/15 10:49:58;;;;;;;2.55;0.20;;;13.20;96.70;;;;;;5027437;28;20037;-77
2023/10/15 10:52:36;;;;;;;2.50;0.20;;;13.40;96.40;;;;;;5015559;28;20018;-81
2023/10/15 10:55:29;;;;;;;3.28;0.20;;;13.60;96.30;;;;;;5040762;28;20061;-80
2023/10/15 10:57:54;;;;;;;4.50;0.20;;;13.80;96.10;;;;;;5033114;28;20056;-80
2023/10/15 11:00:20;;;;;;;2.92;0.30;;;14.00;96.80;;;;;;5046971;28;20477;-76
2023/10/15 11:02:47;;;;;;;1.10;0.20;;;14.20;96.10;;;;;;5033247;28;20033;-81
2023/10/15 11:05:13;;;;;;;3.58;0.20;;;14.20;93.70;;;;;;5033148;28;20067;-81
2023/10/15 11:07:40;;;;;;;2.75;0.22;;;14.20;93.40;;;;;;5040945;28;20040;-79
2023/10/15 11:10:07;;;;;;;2.40;0.57;;;14.20;93.50;;;;;;5033329;28;20475;-80
2023/10/15 11:12:33;;;;;;;2.60;0.25;;;14.20;93.60;;;;;;5033687;28;20026;-83
2023/10/15 11:14:59;;;;;;;3.17;0.40;;;14.30;93.80;;;;;;5033187;28;20425;-79
2023/10/15 11:17:25;;;;;;;2.83;0.20;;;14.20;94.20;;;;;;5031316;28;20030;-79
2023/10/15 11:19:51;;;;;;;2.65;0.20;;;14.20;94.20;;;;;;5032940;28;20086;-75
2023/10/15 11:22:16;;;;;;;4.00;0.17;;;14.20;94.60;;;;;;5033530;28;20030;-80
2023/10/15 11:24:44;;;;;;;1.65;0.10;;;14.20;94.00;;;;;;5046600;28;20397;-76
2023/10/15 11:27:11;;;;;;;1.23;0.10;;;14.30;93.70;;;;;;5041759;28;20032;-78
2023/10/15 11:29:37;;;;;;;1.83;0.20;;;14.30;93.40;;;;;;5043235;28;20117;-80
2023/10/15 11:32:06;;;;;;;2.22;0.20;;;14.20;92.70;;;;;;5045872;28;20061;-76
2023/10/15 11:34:35;;;;;;;3.80;0.20;;;14.20;93.10;;;;;;5046368;28;20112;-75
2023/10/15 11:37:01;;;;;;;4.03;0.45;;;14.20;93.20;;;;;;5033528;28;20039;-79
2023/10/15 11:39:37;;;;;;;2.15;0.25;;;14.30;93.50;;;;;;5044551;28;20034;-78
2023/10/15 11:42:14;;;;;;;3.03;0.20;;;14.20;92.20;;;;;;5042628;28;20407;-78
2023/10/15 11:44:44;;;;;;;4.68;0.30;;;14.00;91.90;;;;;;5019052;28;20029;-79
2023/10/15 11:47:16;;;;;;;0.93;0.20;;;14.00;92.60;;;;;;5034077;28;20458;-78
2023/10/15 11:49:45;;;;;;;4.75;0.20;;;13.90;91.00;;;;;;5030675;28;20033;-76
2023/10/15 11:52:22;;;;;;;3.13;0.30;;;13.80;91.40;;;;;;5021001;28;20108;-77
2023/10/15 11:54:51;;;;;;;3.70;0.30;;;13.70;91.20;;;;;;5021554;28;20186;-77
2023/10/15 11:57:21;;;;;;;3.50;0.20;;;13.60;90.70;;;;;;5016170;28;20038;-78
2023/10/15 11:59:53;;;;;;;5.03;0.25;;;13.40;90.70;;;;;;5015461;28;20037;-77
2023/10/15 12:02:18;;;;;;;3.28;0.30;;;13.40;91.20;;;;;;5016592;28;20040;-75
2023/10/15 12:04:47;;;;;;;2.67;0.15;;;13.60;91.70;;;;;;5016493;28;20026;-76
2023/10/15 12:07:21;;;;;;;2.47;0.10;;;13.70;91.90;;;;;;5013870;28;20041;-75
2023/10/15 12:09:48;;;;;;;4.28;0.40;;;13.90;92.10;;;;;;5016274;28;20022;-75
2023/10/15 12:12:14;;;;;;;2.63;0.30;;;13.80;90.70;;;;;;5013435;28;20040;-75
2023/10/15 12:14:40;;;;;;;4.55;0.40;;;13.60;90.90;;;;;;5015870;28;20036;-75
2023/10/15 12:17:06;;;;;;;3.13;0.20;;;13.40;91.40;;;;;;5014540;28;20120;-75
2023/10/15 12:19:32;;;;;;;3.47;0.50;;;13.50;91.80;;;;;;5014254;28;20476;-75
2023/10/15 12:22:03;;;;;;;2.78;0.20;;;13.70;92.30;;;;;;5015991;28;20041;-75
2023/10/15 12:24:28;;;;;;;2.72;0.20;;;13.80;91.40;;;;;;5020377;28;20057;-75
2023/10/15 12:26:54;;;;;;;2.58;0.40;;;13.90;91.20;;;;;;5038539;28;20049;-74
2023/10/15 12:29:28;;;;;;;2.65;0.20;;;14.00;91.50;;;;;;5035207;28;20033;-74
2023/10/15 12:31:56;;;;;;;4.53;0.57;;;14.00;90.60;;;;;;5035868;28;20382;-75
2023/10/15 12:34:21;;;;;;;3.38;0.38;;;14.20;91.00;;;;;;5017657;28;20025;-75
2023/10/15 12:36:47;;;;;;;2.38;0.20;;;14.30;90.60;;;;;;5008533;28;20048;-75
2023/10/15 12:39:15;;;;;;;2.22;0.20;;;14.30;90.50;;;;;;5042422;28;20481;-75
2023/10/15 12:41:41;;;;;;;3.15;0.20;;;14.30;90.80;;;;;;5035174;28;20037;-75
2023/10/15 12:44:10;;;;;;;2.47;0.20;;;14.50;90.90;;;;;;5035543;28;20025;-75
2023/10/15 12:46:36;;;;;;;5.70;0.40;;;14.70;90.50;;;;;;5035348;28;20034;-75
2023/10/15 12:49:03;;;;;;;3.50;0.40;;;14.80;89.80;;;;;;5034359;28;20371;-75
2023/10/15 12:51:30;;;;;;;2.10;0.40;;;14.80;89.90;;;;;;5035301;28;20033;-75
2023/10/15 12:53:56;;;;;;;3.95;0.30;;;14.80;90.00;;;;;;5035251;28;20065;-74
2023/10/15 12:56:22;;;;;;;2.88;0.55;;;14.80;90.60;;;;;;5017596;28;20474;-75
2023/10/15 12:58:49;;;;;;;2.97;0.30;;;15.00;90.20;;;;;;5017217;28;20053;-75
2023/10/15 13:01:19;;;;;;;3.25;0.20;;;15.00;90.10;;;;;;5035302;28;20035;-75
2023/10/15 13:03:49;;;;;;;3.90;0.30;;;15.10;90.10;;;;;;5034980;28;20488;-75
2023/10/15 13:06:19;;;;;;;3.30;0.38;;;15.00;88.10;;;;;;5034787;28;20030;-74
2023/10/15 13:08:46;;;;;;;5.47;0.35;;;14.90;86.60;;;;;;5034819;28;20036;-75
2023/10/15 13:11:11;;;;;;;1.83;0.20;;;14.60;85.40;;;;;;5035086;28;20034;-74
2023/10/15 13:13:38;;;;;;;5.57;0.60;;;14.40;87.80;;;;;;5034845;28;20033;-74
2023/10/15 13:16:04;;;;;;;3.33;0.20;;;14.30;89.10;;;;;;5017088;28;20025;-75